MOL Partner — 3EBZ5 — position and weather

sailwx.info

Track history (hours):
 
Tides and Currents Weather Stations Pressure Air Temp Water Temp Dewpoint Dewpoint Depression Visibility Wind Speed Wind Dir Waves Ship Positions

MOL Partner

Last reported at 2015-Apr-28 04:33 UTC. Time now 2015-Apr-28 19:48 UTC.
Position S 34°36' W 058°22'.

Length 293 m; draft 9.6 m.

Type: Ship (hazmat cat D). MMSI: 371303000.

Date/timePositionNaut miles runAvg speedWind from/ knotsBaromVisibWave heightAir tempDewpointWater temp
2015-Apr-28 04:33S 34°36' W 058°22'9 9.2
2015-Apr-28 03:33S 34°37' W 058°11'1010.1
2015-Apr-28 02:33S 34°41' W 057°59'5 5.2
2015-Apr-28 01:34S 34°42' W 057°53'5 4.4
2015-Apr-28 00:32S 34°44' W 057°48'0 0.0
2015-Apr-27 23:32S 34°44' W 057°48'0 0.1
2015-Apr-27 22:32S 34°44' W 057°48'0 0.1
2015-Apr-27 21:32S 34°44' W 057°48'0 0.1
2015-Apr-27 20:33S 34°44' W 057°48'1110.6
2015-Apr-27 19:33S 34°46' W 057°35'1414.1
2015-Apr-27 18:33S 34°52' W 057°20'1414.2
2015-Apr-27 17:33S 35°03' W 057°09'1313.0
2015-Apr-27 16:33S 35°10' W 056°55'62912.6
2015-Apr-25 14:31S 27°52' W 048°05'1414.3
2015-Apr-25 13:33S 27°39' W 048°00'1514.3
2015-Apr-25 12:29S 27°24' W 047°57'192 6.2
2015-Apr-24 05:33S 24°29' W 046°31'1616.2
2015-Apr-24 04:34S 24°13' W 046°26'1414.4
2015-Apr-24 03:33S 23°60' W 046°20'2 2.4
2015-Apr-24 02:32S 23°58' W 046°18'0 0.0
2015-Apr-24 01:26S 23°58' W 046°18'0 0.0
2015-Apr-24 00:29S 23°58' W 046°18'0 0.0
2015-Apr-23 23:29S 23°58' W 046°18'0 0.0
2015-Apr-23 22:32S 23°58' W 046°18'0 0.0
2015-Apr-23 21:32S 23°58' W 046°18'0 0.0
2015-Apr-23 20:32S 23°58' W 046°18'0 0.0
2015-Apr-23 19:29S 23°58' W 046°18'0 0.0
2015-Apr-23 18:32S 23°58' W 046°18'0 0.0
2015-Apr-23 17:32S 23°58' W 046°18'0 0.0
2015-Apr-23 16:32S 23°58' W 046°18'0 0.0
2015-Apr-23 15:32S 23°58' W 046°18'0 0.0
2015-Apr-23 14:26S 23°58' W 046°18'0 0.0
2015-Apr-23 13:29S 23°58' W 046°18'0 0.0
2015-Apr-23 12:29S 23°58' W 046°18'0 0.0
2015-Apr-23 11:20S 23°58' W 046°18'0 0.0
2015-Apr-23 10:20S 23°58' W 046°18'0 0.0
2015-Apr-23 09:29S 23°58' W 046°18'0 0.0
2015-Apr-23 08:32S 23°58' W 046°18'0 0.0
2015-Apr-23 07:32S 23°58' W 046°18'0 0.0
2015-Apr-23 04:26S 23°58' W 046°18'0 0.0
2015-Apr-23 03:32S 23°58' W 046°18'0 0.0
2015-Apr-23 02:32S 23°58' W 046°18'0 0.0
2015-Apr-23 01:26S 23°58' W 046°18'0 0.0
2015-Apr-23 00:32S 23°58' W 046°18'0 0.0
2015-Apr-22 23:29S 23°58' W 046°18'0 0.0
2015-Apr-22 22:29S 23°58' W 046°18'0 0.0
2015-Apr-22 21:29S 23°58' W 046°18'0 0.0
2015-Apr-22 20:29S 23°58' W 046°18'4 4.1
2015-Apr-22 19:33S 24°01' W 046°21'10 9.5
2015-Apr-22 18:32S 24°11' W 046°22'9 9.7
2015-Apr-22 17:33S 24°19' W 046°18'1111.3
2015-Apr-22 16:33S 24°27' W 046°09'  
Track history (hours):
 
Tides and Currents Weather Stations Pressure Air Temp Water Temp Dewpoint Dewpoint Depression Visibility Wind Speed Wind Dir Waves Ship Positions

MOL Partner

Last reported at 2015-Apr-28 04:33 UTC. Time now 2015-Apr-28 19:48 UTC.
Position S 34°36' W 058°22'.

Length 293 m; draft 9.6 m.

Type: Ship (hazmat cat D). MMSI: 371303000.

Date/timePositionNaut miles runAvg speedWind from/ knotsBaromVisibWave heightAir tempDewpointWater temp
2015-Apr-28 04:33S 34°36' W 058°22'9 9.2
2015-Apr-28 03:33S 34°37' W 058°11'1010.1
2015-Apr-28 02:33S 34°41' W 057°59'5 5.2
2015-Apr-28 01:34S 34°42' W 057°53'5 4.4
2015-Apr-28 00:32S 34°44' W 057°48'0 0.0
2015-Apr-27 23:32S 34°44' W 057°48'0 0.1
2015-Apr-27 22:32S 34°44' W 057°48'0 0.1
2015-Apr-27 21:32S 34°44' W 057°48'0 0.1
2015-Apr-27 20:33S 34°44' W 057°48'1110.6
2015-Apr-27 19:33S 34°46' W 057°35'1414.1
2015-Apr-27 18:33S 34°52' W 057°20'1414.2
2015-Apr-27 17:33S 35°03' W 057°09'1313.0
2015-Apr-27 16:33S 35°10' W 056°55'62912.6
2015-Apr-25 14:31S 27°52' W 048°05'1414.3
2015-Apr-25 13:33S 27°39' W 048°00'1514.3
2015-Apr-25 12:29S 27°24' W 047°57'192 6.2
2015-Apr-24 05:33S 24°29' W 046°31'1616.2
2015-Apr-24 04:34S 24°13' W 046°26'1414.4
2015-Apr-24 03:33S 23°60' W 046°20'2 2.4
2015-Apr-24 02:32S 23°58' W 046°18'0 0.0
2015-Apr-24 01:26S 23°58' W 046°18'0 0.0
2015-Apr-24 00:29S 23°58' W 046°18'0 0.0
2015-Apr-23 23:29S 23°58' W 046°18'0 0.0
2015-Apr-23 22:32S 23°58' W 046°18'0 0.0
2015-Apr-23 21:32S 23°58' W 046°18'0 0.0
2015-Apr-23 20:32S 23°58' W 046°18'0 0.0
2015-Apr-23 19:29S 23°58' W 046°18'0 0.0
2015-Apr-23 18:32S 23°58' W 046°18'0 0.0
2015-Apr-23 17:32S 23°58' W 046°18'0 0.0
2015-Apr-23 16:32S 23°58' W 046°18'0 0.0
2015-Apr-23 15:32S 23°58' W 046°18'0 0.0
2015-Apr-23 14:26S 23°58' W 046°18'0 0.0
2015-Apr-23 13:29S 23°58' W 046°18'0 0.0
2015-Apr-23 12:29S 23°58' W 046°18'0 0.0
2015-Apr-23 11:20S 23°58' W 046°18'0 0.0
2015-Apr-23 10:20S 23°58' W 046°18'0 0.0
2015-Apr-23 09:29S 23°58' W 046°18'0 0.0
2015-Apr-23 08:32S 23°58' W 046°18'0 0.0
2015-Apr-23 07:32S 23°58' W 046°18'0 0.0
2015-Apr-23 04:26S 23°58' W 046°18'0 0.0
2015-Apr-23 03:32S 23°58' W 046°18'0 0.0
2015-Apr-23 02:32S 23°58' W 046°18'0 0.0
2015-Apr-23 01:26S 23°58' W 046°18'0 0.0
2015-Apr-23 00:32S 23°58' W 046°18'0 0.0
2015-Apr-22 23:29S 23°58' W 046°18'0 0.0
2015-Apr-22 22:29S 23°58' W 046°18'0 0.0
2015-Apr-22 21:29S 23°58' W 046°18'0 0.0
2015-Apr-22 20:29S 23°58' W 046°18'4 4.1
2015-Apr-22 19:33S 24°01' W 046°21'10 9.5
2015-Apr-22 18:32S 24°11' W 046°22'9 9.7
2015-Apr-22 17:33S 24°19' W 046°18'1111.3
2015-Apr-22 16:33S 24°27' W 046°09'  

Dump ship's entire track history